createdAt,value
2022-08-07T00:02:36.859Z,99599.34
2022-08-07T00:05:01.609Z,99593.97
2022-08-07T00:07:40.292Z,99600.81
2022-08-07T00:10:25.968Z,99591.00
2022-08-07T00:13:00.485Z,99605.63
2022-08-07T00:15:38.328Z,99605.63
2022-08-07T00:18:19.389Z,99603.41
2022-08-07T00:21:07.949Z,99593.72
2022-08-07T00:23:52.801Z,99608.41
2022-08-07T00:26:49.465Z,99605.28
2022-08-07T00:29:06.686Z,99605.22
2022-08-07T00:31:37.634Z,99612.69
2022-08-07T00:34:11.043Z,99587.63
2022-08-07T00:36:43.012Z,99594.81
2022-08-07T00:39:12.805Z,99584.16
2022-08-07T00:41:53.108Z,99594.72
2022-08-07T00:44:21.549Z,99600.53
2022-08-07T00:46:48.442Z,99598.03
2022-08-07T00:49:24.883Z,99602.72
2022-08-07T00:52:06.018Z,99592.75
2022-08-07T00:54:36.885Z,99616.47
2022-08-07T00:57:07.824Z,99606.88
2022-08-07T00:59:39.499Z,99616.16
2022-08-07T01:02:13.925Z,99621.66
2022-08-07T01:04:58.219Z,99617.03
2022-08-07T01:07:29.216Z,99623.31
2022-08-07T01:10:06.090Z,99617.69
2022-08-07T01:12:38.882Z,99614.09
2022-08-07T01:15:07.360Z,99613.50
2022-08-07T01:17:40.073Z,99621.06
2022-08-07T01:20:17.089Z,99617.13
2022-08-07T01:22:58.373Z,99616.06
2022-08-07T01:25:54.445Z,99596.72
2022-08-07T01:28:22.219Z,99621.13
2022-08-07T01:30:52.802Z,99634.81
2022-08-07T01:33:22.484Z,99621.88
2022-08-07T01:35:53.368Z,99621.75
2022-08-07T01:38:29.176Z,99624.25
2022-08-07T01:41:04.438Z,99614.16
2022-08-07T01:43:38.559Z,99610.47
2022-08-07T01:46:08.351Z,99617.44
2022-08-07T01:48:46.737Z,99594.88
2022-08-07T01:51:58.673Z,99620.88
2022-08-07T01:54:32.578Z,99607.47
2022-08-07T01:58:00.985Z,99625.63
2022-08-07T02:00:14.292Z,99621.94
2022-08-07T02:03:19.247Z,99638.00
2022-08-07T02:06:01.300Z,99610.16
2022-08-07T02:08:36.403Z,99597.41
2022-08-07T02:11:04.715Z,99603.03
2022-08-07T02:13:56.559Z,99607.66
2022-08-07T02:16:28.745Z,99603.94
2022-08-07T02:20:05.627Z,99610.00
2022-08-07T02:21:57.694Z,99616.28
2022-08-07T02:24:29.429Z,99615.50
2022-08-07T02:27:01.288Z,99602.56
2022-08-07T02:29:32.726Z,99620.25
2022-08-07T02:32:04.273Z,99603.88
2022-08-07T02:34:33.220Z,99602.72
2022-08-07T02:37:08.101Z,99612.50
2022-08-07T02:39:43.112Z,99628.25
2022-08-07T02:42:31.276Z,99588.22
2022-08-07T02:45:07.331Z,99610.63
2022-08-07T02:48:01.872Z,99606.47
2022-08-07T02:50:34.470Z,99602.41
2022-08-07T02:53:10.952Z,99608.50
2022-08-07T02:56:03.198Z,99609.63
2022-08-07T02:58:36.736Z,99604.13
2022-08-07T03:01:16.057Z,99619.13
2022-08-07T03:03:49.800Z,99623.44
2022-08-07T03:06:26.132Z,99622.69
2022-08-07T03:09:02.591Z,99611.72
2022-08-07T03:11:32.991Z,99610.31
2022-08-07T03:14:09.163Z,99604.09
2022-08-07T03:16:38.424Z,99577.59
2022-08-07T03:19:08.399Z,99596.03
2022-08-07T03:21:36.419Z,99592.94
2022-08-07T03:24:19.927Z,99604.47
2022-08-07T03:26:58.276Z,99602.03
2022-08-07T03:29:36.829Z,99597.28
2022-08-07T03:32:13.727Z,99598.16
2022-08-07T03:35:17.581Z,99589.75
2022-08-07T03:37:55.013Z,99594.41
2022-08-07T03:40:35.981Z,99595.59
2022-08-07T03:43:13.900Z,99588.13
2022-08-07T03:45:51.369Z,99586.41
2022-08-07T03:48:24.313Z,99587.09
2022-08-07T03:50:57.850Z,99568.59
2022-08-07T03:54:05.861Z,99602.69
2022-08-07T03:56:32.552Z,99580.91
2022-08-07T03:59:08.102Z,99602.31
2022-08-07T04:01:45.632Z,99602.03
2022-08-07T04:04:20.350Z,99582.59
2022-08-07T04:06:53.081Z,99585.31
2022-08-07T04:09:24.092Z,99588.31
2022-08-07T04:12:20.846Z,99586.47
2022-08-07T04:14:49.004Z,99569.66
2022-08-07T04:18:57.866Z,99548.69
2022-08-07T04:20:26.688Z,99596.81
2022-08-07T04:23:01.977Z,99581.78
2022-08-07T04:25:39.306Z,99574.31
2022-08-07T04:28:15.178Z,99579.34
2022-08-07T04:30:57.387Z,99591.91
2022-08-07T04:33:35.298Z,99585.63
2022-08-07T04:36:06.599Z,99555.03
2022-08-07T04:38:36.233Z,99586.16
2022-08-07T04:41:04.270Z,99574.38
2022-08-07T04:44:12.566Z,99577.75
2022-08-07T04:47:56.884Z,99593.91
2022-08-07T04:50:44.205Z,99592.06
2022-08-07T04:54:01.771Z,99590.59
2022-08-07T04:58:10.821Z,99584.38
2022-08-07T05:00:12.875Z,99588.13
2022-08-07T05:02:20.682Z,99573.06
2022-08-07T05:05:11.440Z,99577.59
2022-08-07T05:08:00.914Z,99604.28
2022-08-07T05:10:37.477Z,99593.13
2022-08-07T05:14:56.531Z,99601.34
2022-08-07T05:16:06.412Z,99571.97
2022-08-07T05:18:44.026Z,99590.28
2022-08-07T05:21:14.684Z,99583.13
2022-08-07T05:23:52.208Z,99584.19
2022-08-07T05:26:24.239Z,99576.31
2022-08-07T05:29:04.097Z,99579.22
2022-08-07T05:31:51.233Z,99591.72
2022-08-07T05:34:45.675Z,99593.47
2022-08-07T05:37:15.120Z,99607.94
2022-08-07T05:40:05.414Z,99579.44
2022-08-07T05:42:41.251Z,99582.41
2022-08-07T05:45:26.209Z,99592.38
2022-08-07T05:48:04.182Z,99593.88
2022-08-07T05:50:42.816Z,99591.44
2022-08-07T05:54:09.344Z,99597.38
2022-08-07T05:56:12.485Z,99597.59
2022-08-07T05:58:52.399Z,99605.50
2022-08-07T06:01:24.804Z,99562.81
2022-08-07T06:04:00.928Z,99603.63
2022-08-07T06:06:36.441Z,99579.06
2022-08-07T06:09:08.756Z,99574.97
2022-08-07T06:12:12.433Z,99597.38
2022-08-07T06:14:49.592Z,99594.84
2022-08-07T06:17:22.308Z,99593.13
2022-08-07T06:20:03.331Z,99591.16
2022-08-07T06:22:40.070Z,99597.84
2022-08-07T06:25:54.281Z,99585.75
2022-08-07T06:28:27.378Z,99603.69
2022-08-07T06:30:58.244Z,99589.78
2022-08-07T06:33:29.528Z,99589.75
2022-08-07T06:36:06.593Z,99585.44
2022-08-07T06:40:17.188Z,99574.59
2022-08-07T06:42:32.988Z,99596.94
2022-08-07T06:46:00.829Z,99576.78
2022-08-07T06:52:53.195Z,99562.75
2022-08-07T06:55:53.832Z,99584.47
2022-08-07T06:58:28.756Z,99600.47
2022-08-07T07:01:21.175Z,99577.19
2022-08-07T07:03:58.134Z,99567.41
2022-08-07T07:07:00.683Z,99566.69
2022-08-07T07:09:31.795Z,99577.22
2022-08-07T07:12:33.488Z,99576.72
2022-08-07T07:15:51.717Z,99569.41
2022-08-07T07:22:05.152Z,99562.66
2022-08-07T07:26:31.400Z,99566.69
2022-08-07T07:28:42.809Z,99579.06
2022-08-07T07:31:39.795Z,99576.19
2022-08-07T07:34:22.041Z,99565.22
2022-08-07T07:37:14.326Z,99563.03
2022-08-07T07:40:19.779Z,99586.31
2022-08-07T07:43:15.079Z,99597.69
2022-08-07T07:46:38.267Z,99569.78
2022-08-07T07:48:35.705Z,99557.75
2022-08-07T07:51:12.022Z,99574.59
2022-08-07T07:54:07.480Z,99570.97
2022-08-07T07:56:40.837Z,99594.41
2022-08-07T07:59:09.817Z,99568.16
2022-08-07T08:02:02.430Z,99569.41
2022-08-07T08:04:32.068Z,99579.81
2022-08-07T08:07:02.825Z,99567.59
2022-08-07T08:10:04.862Z,99553.75
2022-08-07T08:12:52.382Z,99594.03
2022-08-07T08:15:57.788Z,99547.72
2022-08-07T08:18:24.702Z,99568.78
2022-08-07T08:20:52.414Z,99552.41
2022-08-07T08:23:27.942Z,99559.13
2022-08-07T08:26:06.996Z,99550.25
2022-08-07T08:28:44.892Z,99559.19
2022-08-07T08:31:58.422Z,99559.22
2022-08-07T08:34:46.624Z,99560.13
2022-08-07T08:38:00.325Z,99580.38
2022-08-07T08:40:40.925Z,99559.94
2022-08-07T08:43:22.208Z,99559.56
2022-08-07T08:46:20.390Z,99548.47
2022-08-07T08:49:01.958Z,99547.34
2022-08-07T08:52:01.124Z,99547.88
2022-08-07T08:54:41.621Z,99532.34
2022-08-07T08:57:19.800Z,99536.31
2022-08-07T09:00:23.109Z,99525.25
2022-08-07T09:03:07.518Z,99531.03
2022-08-07T09:05:47.808Z,99543.66
2022-08-07T09:08:28.613Z,99537.50
2022-08-07T09:11:50.751Z,99532.03
2022-08-07T09:14:50.941Z,99545.16
2022-08-07T09:18:09.895Z,99527.06
2022-08-07T09:20:58.335Z,99545.69
2022-08-07T09:24:32.256Z,99509.75
2022-08-07T09:26:47.831Z,99537.81
2022-08-07T09:30:01.234Z,99548.72
2022-08-07T09:32:21.699Z,99534.31
2022-08-07T09:34:53.860Z,99529.84
2022-08-07T09:37:53.394Z,99532.00
2022-08-07T09:40:35.597Z,99534.59
2022-08-07T09:44:03.392Z,99515.78
2022-08-07T09:47:52.329Z,99526.72
2022-08-07T09:50:18.312Z,99532.94
2022-08-07T09:52:51.686Z,99503.22
2022-08-07T09:56:03.314Z,99519.91
2022-08-07T09:58:53.407Z,99498.28
2022-08-07T10:01:57.339Z,99508.63
2022-08-07T10:05:12.745Z,99517.28
2022-08-07T10:08:19.598Z,99518.31
2022-08-07T10:11:16.741Z,99521.63
2022-08-07T10:14:01.359Z,99487.84
2022-08-07T10:16:41.193Z,99520.97
2022-08-07T10:19:30.216Z,99517.97
2022-08-07T10:22:33.626Z,99517.41
2022-08-07T10:25:22.628Z,99506.91
2022-08-07T10:28:49.588Z,99496.66
2022-08-07T10:31:49.034Z,99494.56
2022-08-07T10:34:27.246Z,99483.47
2022-08-07T10:37:17.852Z,99501.75
2022-08-07T10:40:08.780Z,99507.75
2022-08-07T10:42:59.558Z,99499.94
2022-08-07T10:45:57.809Z,99495.75
2022-08-07T10:48:54.268Z,99481.84
2022-08-07T10:51:57.580Z,99491.59
2022-08-07T10:54:35.568Z,99491.16
2022-08-07T10:57:39.207Z,99500.59
2022-08-07T11:00:36.757Z,99493.56
2022-08-07T11:03:11.379Z,99481.84
2022-08-07T11:06:18.293Z,99470.28
2022-08-07T11:09:12.960Z,99458.56
2022-08-07T11:12:11.105Z,99458.63
2022-08-07T11:14:59.783Z,99443.06
2022-08-07T11:17:43.637Z,99492.09
2022-08-07T11:20:24.619Z,99438.84
2022-08-07T11:23:07.486Z,99453.25
2022-08-07T11:26:11.229Z,99461.81
2022-08-07T11:28:53.298Z,99455.25
2022-08-07T11:31:27.173Z,99449.44
2022-08-07T11:34:42.375Z,99420.38
2022-08-07T11:37:38.439Z,99454.50
2022-08-07T11:40:50.180Z,99434.38
2022-08-07T11:43:29.836Z,99434.19
2022-08-07T11:46:43.492Z,99430.50
2022-08-07T11:50:25.496Z,99437.44
2022-08-07T11:52:49.962Z,99444.34
2022-08-07T11:56:09.315Z,99426.84
2022-08-07T11:59:01.582Z,99437.38
2022-08-07T12:02:01.367Z,99425.41
2022-08-07T12:04:36.573Z,99421.41
2022-08-07T12:07:27.353Z,99416.22
2022-08-07T12:10:05.613Z,99409.00
2022-08-07T12:12:40.486Z,99431.25
2022-08-07T12:15:46.714Z,99422.88
2022-08-07T12:18:50.652Z,99411.97
2022-08-07T12:22:36.373Z,99426.31
2022-08-07T12:24:37.515Z,99413.84
2022-08-07T12:27:18.683Z,99404.88
2022-08-07T12:30:02.257Z,99397.22
2022-08-07T12:32:54.597Z,99389.97
2022-08-07T12:36:02.246Z,99397.50
2022-08-07T12:38:42.464Z,99399.91
2022-08-07T12:41:12.802Z,99382.03
2022-08-07T12:44:02.194Z,99404.66
2022-08-07T12:46:50.902Z,99378.03
2022-08-07T12:49:51.015Z,99385.28
2022-08-07T12:52:41.745Z,99382.06
2022-08-07T12:56:09.142Z,99404.66
2022-08-07T12:58:53.281Z,99390.19
2022-08-07T13:01:55.912Z,99398.38
2022-08-07T13:04:49.143Z,99392.91
2022-08-07T13:08:12.801Z,99389.66
2022-08-07T13:11:08.600Z,99396.38
2022-08-07T13:14:18.447Z,99358.09
2022-08-07T13:17:21.212Z,99389.44
2022-08-07T13:20:00.221Z,99369.78
2022-08-07T13:22:34.278Z,99392.19
2022-08-07T13:25:15.412Z,99355.75
2022-08-07T13:28:24.132Z,99396.03
2022-08-07T13:31:01.625Z,99378.16
2022-08-07T13:34:31.527Z,99401.47
2022-08-07T13:37:10.661Z,99394.19
2022-08-07T13:40:36.275Z,99374.34
2022-08-07T13:42:44.072Z,99377.25
2022-08-07T13:46:12.072Z,99371.25
2022-08-07T13:48:10.560Z,99367.19
2022-08-07T13:52:04.554Z,99370.47
2022-08-07T13:55:31.333Z,99382.69
2022-08-07T13:58:20.294Z,99383.91
2022-08-07T14:00:58.685Z,99370.78
2022-08-07T14:04:05.599Z,99387.34
2022-08-07T14:06:50.304Z,99356.94
2022-08-07T14:10:02.928Z,99364.31
2022-08-07T14:15:56.823Z,99356.28
2022-08-07T14:18:30.660Z,99356.94
2022-08-07T14:21:20.748Z,99356.31
2022-08-07T14:23:59.956Z,99359.56
2022-08-07T14:26:50.351Z,99364.75
2022-08-07T14:30:08.212Z,99358.97
2022-08-07T14:32:20.674Z,99372.06
2022-08-07T14:34:54.579Z,99341.38
2022-08-07T14:37:23.807Z,99349.06
2022-08-07T14:40:26.737Z,99354.66
2022-08-07T14:43:59.118Z,99351.34
2022-08-07T14:46:01.024Z,99369.50
2022-08-07T14:48:33.165Z,99348.94
2022-08-07T14:51:23.786Z,99369.09
2022-08-07T14:54:30.189Z,99399.56
2022-08-07T14:56:43.572Z,99364.56
2022-08-07T15:00:05.666Z,99370.25
2022-08-07T15:05:01.614Z,99364.47
2022-08-07T15:07:47.728Z,99364.34
2022-08-07T15:10:29.874Z,99363.03
2022-08-07T15:13:06.331Z,99373.47
2022-08-07T15:15:41.406Z,99358.78
2022-08-07T15:18:28.844Z,99367.00
2022-08-07T15:21:58.759Z,99378.00
2022-08-07T15:27:03.297Z,99367.50
2022-08-07T15:30:09.207Z,99379.59
2022-08-07T15:38:32.995Z,99373.91
2022-08-07T15:41:23.790Z,99391.16
2022-08-07T15:44:17.502Z,99381.88
2022-08-07T15:46:52.404Z,99387.63
2022-08-07T15:50:04.006Z,99385.88
2022-08-07T15:52:30.379Z,99375.56
2022-08-07T15:55:02.697Z,99386.88
2022-08-07T15:57:40.322Z,99381.72
2022-08-07T16:00:31.487Z,99365.94
2022-08-07T16:03:46.102Z,99384.03
2022-08-07T16:06:09.612Z,99396.06
2022-08-07T16:08:42.961Z,99399.00
2022-08-07T16:12:03.639Z,99393.16
2022-08-07T16:14:59.097Z,99388.13
2022-08-07T16:18:01.374Z,99404.75
2022-08-07T16:20:43.381Z,99424.97
2022-08-07T16:23:59.265Z,99396.28
2022-08-07T16:26:30.486Z,99401.03
2022-08-07T16:30:11.879Z,99403.44
2022-08-07T16:32:32.988Z,99391.44
2022-08-07T16:35:58.270Z,99416.75
2022-08-07T16:38:15.800Z,99417.06
2022-08-07T16:41:10.440Z,99401.38
2022-08-07T16:44:03.834Z,99405.84
2022-08-07T16:47:05.849Z,99417.19
2022-08-07T16:50:28.167Z,99402.50
2022-08-07T16:53:14.924Z,99409.56
2022-08-07T16:56:02.706Z,99422.84
2022-08-07T16:59:14.484Z,99417.06
2022-08-07T17:01:56.672Z,99420.88
2022-08-07T17:04:57.595Z,99420.19
2022-08-07T17:07:55.214Z,99435.97
2022-08-07T17:10:42.446Z,99438.09
2022-08-07T17:13:40.376Z,99412.03
2022-08-07T17:16:55.898Z,99427.28
2022-08-07T17:20:02.179Z,99432.84
2022-08-07T17:22:52.801Z,99457.41
2022-08-07T17:25:51.218Z,99434.66
2022-08-07T17:28:19.371Z,99437.16
2022-08-07T17:31:44.224Z,99447.72
2022-08-07T17:35:33.081Z,99456.47
2022-08-07T17:38:15.012Z,99461.81
2022-08-07T17:42:04.655Z,99449.03
2022-08-07T17:44:33.650Z,99442.94
2022-08-07T17:47:16.819Z,99455.75
2022-08-07T17:49:53.599Z,99463.22
2022-08-07T17:52:39.729Z,99436.22
2022-08-07T17:55:55.068Z,99460.59
2022-08-07T17:58:46.389Z,99463.59
2022-08-07T18:01:22.574Z,99444.00
2022-08-07T18:04:16.782Z,99459.91
2022-08-07T18:06:57.888Z,99458.56
2022-08-07T18:09:48.316Z,99436.69
2022-08-07T18:13:05.834Z,99453.09
2022-08-07T18:15:55.731Z,99447.03
2022-08-07T18:19:02.671Z,99441.91
2022-08-07T18:21:58.118Z,99445.09
2022-08-07T18:24:42.099Z,99451.53
2022-08-07T18:27:17.338Z,99454.28
2022-08-07T18:30:05.701Z,99456.03
2022-08-07T18:33:36.524Z,99472.72
2022-08-07T18:36:32.821Z,99461.50
2022-08-07T18:40:08.480Z,99459.59
2022-08-07T18:42:32.711Z,99441.16
2022-08-07T18:45:43.341Z,99450.28
2022-08-07T18:50:06.056Z,99469.19
2022-08-07T18:51:07.540Z,99470.97
2022-08-07T18:54:27.904Z,99477.84
2022-08-07T18:57:36.999Z,99488.66
2022-08-07T19:00:32.690Z,99481.97
2022-08-07T19:03:16.399Z,99486.84
2022-08-07T19:06:11.787Z,99474.59
2022-08-07T19:08:55.843Z,99460.34
2022-08-07T19:12:04.134Z,99466.03
2022-08-07T19:16:02.500Z,99460.84
2022-08-07T19:18:34.259Z,99485.63
2022-08-07T19:21:42.757Z,99472.84
2022-08-07T19:24:31.035Z,99456.19
2022-08-07T19:28:29.075Z,99456.44
2022-08-07T19:30:56.672Z,99450.03
2022-08-07T19:32:52.532Z,99457.16
2022-08-07T19:35:33.177Z,99451.53
2022-08-07T19:38:03.916Z,99458.41
2022-08-07T19:40:49.587Z,99480.50
2022-08-07T19:43:50.051Z,99473.63
2022-08-07T19:46:26.821Z,99468.91
2022-08-07T19:49:05.297Z,99489.03
2022-08-07T19:51:52.927Z,99474.81
2022-08-07T19:54:34.784Z,99470.34
2022-08-07T19:58:00.784Z,99457.09
2022-08-07T20:00:12.478Z,99448.75
2022-08-07T20:03:33.608Z,99479.19
2022-08-07T20:06:01.370Z,99471.09
2022-08-07T20:08:33.085Z,99461.25
2022-08-07T20:11:23.151Z,99461.78
2022-08-07T20:14:35.534Z,99468.41
2022-08-07T20:17:06.666Z,99463.50
2022-08-07T20:19:48.034Z,99463.97
2022-08-07T20:22:29.149Z,99476.47
2022-08-07T20:25:19.966Z,99464.22
2022-08-07T20:27:54.293Z,99469.06
2022-08-07T20:30:34.508Z,99475.66
2022-08-07T20:33:05.148Z,99468.25
2022-08-07T20:35:54.551Z,99493.91
2022-08-07T20:38:28.880Z,99477.81
2022-08-07T20:40:59.537Z,99485.88
2022-08-07T20:43:33.979Z,99476.78
2022-08-07T20:46:33.390Z,99496.44
2022-08-07T20:49:57.799Z,99487.31
2022-08-07T20:52:00.569Z,99486.28
2022-08-07T20:54:29.998Z,99483.16
2022-08-07T20:57:03.434Z,99504.28
2022-08-07T21:00:06.431Z,99499.44
2022-08-07T21:02:28.061Z,99492.13
2022-08-07T21:05:00.838Z,99508.50
2022-08-07T21:07:34.280Z,99500.44
2022-08-07T21:10:04.723Z,99491.63
2022-08-07T21:12:35.814Z,99494.78
2022-08-07T21:15:09.606Z,99482.00
2022-08-07T21:18:03.270Z,99492.94
2022-08-07T21:20:37.649Z,99504.88
2022-08-07T21:23:18.517Z,99481.09
2022-08-07T21:26:10.758Z,99494.63
2022-08-07T21:28:58.261Z,99486.75
2022-08-07T21:32:47.504Z,99495.88
2022-08-07T21:34:46.088Z,99476.13
2022-08-07T21:37:24.119Z,99514.81
2022-08-07T21:40:00.797Z,99478.81
2022-08-07T21:42:54.683Z,99479.75
2022-08-07T21:46:10.941Z,99506.81
2022-08-07T21:48:57.624Z,99498.47
2022-08-07T21:51:27.351Z,99486.66
2022-08-07T21:54:29.568Z,99490.38
2022-08-07T21:57:02.598Z,99473.66
2022-08-07T22:00:04.217Z,99495.34
2022-08-07T22:02:55.631Z,99483.34
2022-08-07T22:05:44.308Z,99481.13
2022-08-07T22:08:18.943Z,99489.94
2022-08-07T22:10:58.975Z,99486.03
2022-08-07T22:13:52.420Z,99476.72
2022-08-07T22:16:43.877Z,99491.69
2022-08-07T22:19:29.465Z,99489.50
2022-08-07T22:22:21.405Z,99484.38
2022-08-07T22:24:59.033Z,99478.72
2022-08-07T22:28:19.766Z,99494.47
2022-08-07T22:30:31.801Z,99499.56
2022-08-07T22:33:09.575Z,99502.41
2022-08-07T22:35:57.447Z,99513.78
2022-08-07T22:38:37.657Z,99484.72
2022-08-07T22:41:16.307Z,99509.13
2022-08-07T22:44:18.754Z,99511.09
2022-08-07T22:47:16.934Z,99493.78
2022-08-07T22:50:21.030Z,99496.72
2022-08-07T22:54:06.563Z,99507.19
2022-08-07T22:56:53.080Z,99524.22
2022-08-07T22:59:49.753Z,99479.94
2022-08-07T23:02:52.845Z,99525.44
2022-08-07T23:06:08.681Z,99511.31
2022-08-07T23:08:49.750Z,99517.81
2022-08-07T23:11:29.303Z,99519.31
2022-08-07T23:14:35.660Z,99520.31
2022-08-07T23:17:30.057Z,99509.44
2022-08-07T23:20:07.450Z,99518.38
2022-08-07T23:23:09.815Z,99523.25
2022-08-07T23:25:58.372Z,99506.50
2022-08-07T23:29:16.611Z,99534.75
2022-08-07T23:34:19.606Z,99511.41
2022-08-07T23:35:14.425Z,99536.00
2022-08-07T23:38:19.370Z,99510.59
2022-08-07T23:41:47.436Z,99524.19
2022-08-07T23:44:52.708Z,99519.47
2022-08-07T23:47:47.937Z,99523.47
2022-08-07T23:50:55.582Z,99561.94
2022-08-07T23:54:11.675Z,99547.56
2022-08-07T23:57:00.980Z,99526.16
